sensor_id;sensor_type;location;lat;lon;timestamp;P1;durP1;ratioP1;P2;durP2;ratioP2
50880;SDS011;36858;47.832;-3.800;2023-04-19T06:29:52;28.70;;;21.27;;
50880;SDS011;36858;47.832;-3.800;2023-04-19T06:32:19;25.80;;;20.27;;
50880;SDS011;36858;47.832;-3.800;2023-04-19T06:34:47;31.43;;;21.43;;
50880;SDS011;36858;47.832;-3.800;2023-04-19T06:37:14;31.77;;;21.70;;
50880;SDS011;36858;47.832;-3.800;2023-04-19T06:39:41;33.77;;;22.50;;
50880;SDS011;36858;47.832;-3.800;2023-04-19T06:42:08;30.17;;;22.73;;
50880;SDS011;36858;47.832;-3.800;2023-04-19T06:44:35;33.27;;;21.73;;
50880;SDS011;36858;47.832;-3.800;2023-04-19T06:47:02;31.33;;;21.17;;
50880;SDS011;36858;47.832;-3.800;2023-04-19T06:49:30;29.70;;;22.10;;
50880;SDS011;36858;47.832;-3.800;2023-04-19T06:51:58;32.43;;;22.17;;
50880;SDS011;36858;47.832;-3.800;2023-04-19T06:54:26;30.33;;;20.43;;
50880;SDS011;36858;47.832;-3.800;2023-04-19T06:56:53;34.97;;;21.87;;
50880;SDS011;36858;47.832;-3.800;2023-04-19T06:59:20;27.17;;;20.60;;
50880;SDS011;36858;47.832;-3.800;2023-04-19T07:01:47;29.00;;;21.13;;
50880;SDS011;36858;47.832;-3.800;2023-04-19T07:04:14;25.33;;;20.13;;
50880;SDS011;36858;47.832;-3.800;2023-04-19T07:06:43;25.77;;;19.20;;
50880;SDS011;36858;47.832;-3.800;2023-04-19T07:09:13;26.20;;;20.50;;
50880;SDS011;36858;47.832;-3.800;2023-04-19T07:11:41;31.50;;;21.40;;
50880;SDS011;36858;47.832;-3.800;2023-04-19T07:14:08;25.53;;;21.20;;
50880;SDS011;36858;47.832;-3.800;2023-04-19T07:16:35;27.87;;;20.30;;
50880;SDS011;36858;47.832;-3.800;2023-04-19T07:19:02;27.23;;;20.93;;
50880;SDS011;36858;47.832;-3.800;2023-04-19T07:21:29;26.20;;;20.47;;
50880;SDS011;36858;47.832;-3.800;2023-04-19T07:23:58;30.60;;;21.07;;
50880;SDS011;36858;47.832;-3.800;2023-04-19T07:26:26;25.53;;;19.63;;
50880;SDS011;36858;47.832;-3.800;2023-04-19T07:28:53;27.77;;;20.70;;
50880;SDS011;36858;47.832;-3.800;2023-04-19T07:31:20;31.33;;;21.20;;
50880;SDS011;36858;47.832;-3.800;2023-04-19T07:33:47;26.77;;;19.90;;
50880;SDS011;36858;47.832;-3.800;2023-04-19T07:36:15;26.07;;;19.73;;
50880;SDS011;36858;47.832;-3.800;2023-04-19T07:38:43;27.87;;;19.17;;
50880;SDS011;36858;47.832;-3.800;2023-04-19T07:41:10;26.20;;;18.50;;
50880;SDS011;36858;47.832;-3.800;2023-04-19T07:43:37;27.03;;;19.50;;
50880;SDS011;36858;47.832;-3.800;2023-04-19T07:46:09;24.10;;;18.70;;
50880;SDS011;36858;47.832;-3.800;2023-04-19T07:48:38;21.87;;;17.33;;
50880;SDS011;36858;47.832;-3.800;2023-04-19T07:51:09;23.03;;;18.23;;
50880;SDS011;36858;47.832;-3.800;2023-04-19T07:53:40;23.83;;;18.20;;
50880;SDS011;36858;47.832;-3.800;2023-04-19T07:56:08;26.17;;;18.87;;
50880;SDS011;36858;47.832;-3.800;2023-04-19T07:58:38;26.17;;;18.57;;
50880;SDS011;36858;47.832;-3.800;2023-04-19T08:01:07;23.63;;;18.80;;
50880;SDS011;36858;47.832;-3.800;2023-04-19T08:03:34;23.53;;;18.33;;
50880;SDS011;36858;47.832;-3.800;2023-04-19T08:06:03;29.10;;;18.67;;
50880;SDS011;36858;47.832;-3.800;2023-04-19T08:08:32;21.57;;;18.17;;
50880;SDS011;36858;47.832;-3.800;2023-04-19T08:10:59;19.80;;;16.43;;
50880;SDS011;36858;47.832;-3.800;2023-04-19T08:13:30;21.60;;;18.23;;
50880;SDS011;36858;47.832;-3.800;2023-04-19T08:15:57;19.93;;;16.67;;
50880;SDS011;36858;47.832;-3.800;2023-04-19T08:18:26;21.73;;;18.23;;
50880;SDS011;36858;47.832;-3.800;2023-04-19T08:20:53;20.43;;;16.50;;
50880;SDS011;36858;47.832;-3.800;2023-04-19T08:23:22;22.53;;;16.50;;
50880;SDS011;36858;47.832;-3.800;2023-04-19T08:26:00;20.23;;;16.63;;
50880;SDS011;36858;47.832;-3.800;2023-04-19T08:28:26;20.10;;;16.17;;
50880;SDS011;36858;47.832;-3.800;2023-04-19T08:30:53;18.30;;;15.67;;
50880;SDS011;36858;47.832;-3.800;2023-04-19T08:33:20;18.93;;;16.33;;
50880;SDS011;36858;47.832;-3.800;2023-04-19T08:35:47;20.57;;;15.70;;
50880;SDS011;36858;47.832;-3.800;2023-04-19T08:38:14;19.50;;;15.97;;
50880;SDS011;36858;47.832;-3.800;2023-04-19T08:40:45;20.50;;;15.87;;
50880;SDS011;36858;47.832;-3.800;2023-04-19T08:43:13;20.87;;;15.83;;
50880;SDS011;36858;47.832;-3.800;2023-04-19T08:45:40;17.13;;;15.33;;
50880;SDS011;36858;47.832;-3.800;2023-04-19T08:48:08;19.40;;;14.67;;
50880;SDS011;36858;47.832;-3.800;2023-04-19T08:50:37;17.60;;;15.63;;
50880;SDS011;36858;47.832;-3.800;2023-04-19T08:53:10;18.77;;;15.73;;
50880;SDS011;36858;47.832;-3.800;2023-04-19T08:55:41;18.00;;;15.47;;
50880;SDS011;36858;47.832;-3.800;2023-04-19T08:58:31;18.70;;;14.50;;
50880;SDS011;36858;47.832;-3.800;2023-04-19T09:01:05;19.87;;;14.87;;
50880;SDS011;36858;47.832;-3.800;2023-04-19T09:03:35;21.17;;;13.80;;
50880;SDS011;36858;47.832;-3.800;2023-04-19T09:06:28;18.17;;;15.07;;
50880;SDS011;36858;47.832;-3.800;2023-04-19T09:09:12;16.53;;;13.93;;
50880;SDS011;36858;47.832;-3.800;2023-04-19T09:12:00;16.27;;;12.97;;
50880;SDS011;36858;47.832;-3.800;2023-04-19T09:14:27;16.13;;;13.53;;
50880;SDS011;36858;47.832;-3.800;2023-04-19T09:17:10;19.40;;;14.97;;
50880;SDS011;36858;47.832;-3.800;2023-04-19T09:19:45;19.90;;;14.43;;
50880;SDS011;36858;47.832;-3.800;2023-04-19T09:22:13;14.90;;;13.27;;
50880;SDS011;36858;47.832;-3.800;2023-04-19T09:24:40;17.93;;;14.63;;
50880;SDS011;36858;47.832;-3.800;2023-04-19T09:27:10;20.33;;;15.07;;
50880;SDS011;36858;47.832;-3.800;2023-04-19T09:29:40;17.73;;;13.40;;
50880;SDS011;36858;47.832;-3.800;2023-04-19T09:32:07;17.43;;;13.00;;
50880;SDS011;36858;47.832;-3.800;2023-04-19T09:34:34;15.43;;;12.87;;
50880;SDS011;36858;47.832;-3.800;2023-04-19T09:37:11;15.00;;;12.47;;
50880;SDS011;36858;47.832;-3.800;2023-04-19T09:39:58;17.23;;;12.80;;
50880;SDS011;36858;47.832;-3.800;2023-04-19T09:42:44;14.77;;;12.43;;
50880;SDS011;36858;47.832;-3.800;2023-04-19T09:45:15;14.23;;;11.53;;
50880;SDS011;36858;47.832;-3.800;2023-04-19T09:47:45;14.20;;;11.67;;
50880;SDS011;36858;47.832;-3.800;2023-04-19T09:50:26;16.50;;;12.70;;
50880;SDS011;36858;47.832;-3.800;2023-04-19T09:52:54;16.23;;;12.57;;
50880;SDS011;36858;47.832;-3.800;2023-04-19T09:55:21;13.80;;;12.13;;
50880;SDS011;36858;47.832;-3.800;2023-04-19T09:57:54;13.63;;;11.40;;
50880;SDS011;36858;47.832;-3.800;2023-04-19T10:00:21;16.13;;;12.10;;
50880;SDS011;36858;47.832;-3.800;2023-04-19T10:02:50;15.80;;;11.73;;
50880;SDS011;36858;47.832;-3.800;2023-04-19T10:05:24;14.47;;;11.80;;
50880;SDS011;36858;47.832;-3.800;2023-04-19T10:07:52;13.97;;;11.37;;
50880;SDS011;36858;47.832;-3.800;2023-04-19T10:10:26;16.27;;;11.43;;
50880;SDS011;36858;47.832;-3.800;2023-04-19T10:12:58;16.67;;;11.00;;
50880;SDS011;36858;47.832;-3.800;2023-04-19T10:16:01;13.17;;;10.70;;
50880;SDS011;36858;47.832;-3.800;2023-04-19T10:18:45;12.80;;;10.07;;
50880;SDS011;36858;47.832;-3.800;2023-04-19T10:21:16;10.73;;;9.63;;
50880;SDS011;36858;47.832;-3.800;2023-04-19T10:23:43;12.20;;;9.20;;
50880;SDS011;36858;47.832;-3.800;2023-04-19T10:26:10;11.03;;;9.00;;
50880;SDS011;36858;47.832;-3.800;2023-04-19T10:28:37;12.00;;;9.13;;
50880;SDS011;36858;47.832;-3.800;2023-04-19T10:31:04;11.50;;;9.30;;
50880;SDS011;36858;47.832;-3.800;2023-04-19T10:33:34;15.73;;;9.93;;
50880;SDS011;36858;47.832;-3.800;2023-04-19T10:36:02;11.63;;;9.33;;
50880;SDS011;36858;47.832;-3.800;2023-04-19T10:41:05;10.77;;;9.30;;
50880;SDS011;36858;47.832;-3.800;2023-04-19T10:43:45;10.17;;;8.33;;
50880;SDS011;36858;47.832;-3.800;2023-04-19T10:48:58;10.53;;;8.23;;
50880;SDS011;36858;47.832;-3.800;2023-04-19T10:51:28;9.80;;;8.50;;
50880;SDS011;36858;47.832;-3.800;2023-04-19T10:54:05;9.30;;;8.37;;
50880;SDS011;36858;47.832;-3.800;2023-04-19T11:01:40;8.47;;;7.03;;
50880;SDS011;36858;47.832;-3.800;2023-04-19T11:09:21;10.93;;;8.27;;
50880;SDS011;36858;47.832;-3.800;2023-04-19T11:12:09;9.00;;;8.07;;
50880;SDS011;36858;47.832;-3.800;2023-04-19T11:14:44;9.17;;;7.57;;
50880;SDS011;36858;47.832;-3.800;2023-04-19T11:19:52;8.53;;;7.50;;
50880;SDS011;36858;47.832;-3.800;2023-04-19T11:22:24;9.00;;;7.80;;
50880;SDS011;36858;47.832;-3.800;2023-04-19T11:25:03;9.10;;;7.00;;
50880;SDS011;36858;47.832;-3.800;2023-04-19T11:27:31;10.60;;;6.90;;
50880;SDS011;36858;47.832;-3.800;2023-04-19T11:30:02;6.80;;;5.53;;
50880;SDS011;36858;47.832;-3.800;2023-04-19T11:32:31;7.07;;;5.43;;
50880;SDS011;36858;47.832;-3.800;2023-04-19T11:35:02;6.03;;;5.43;;
50880;SDS011;36858;47.832;-3.800;2023-04-19T11:37:33;6.53;;;5.67;;
50880;SDS011;36858;47.832;-3.800;2023-04-19T11:40:02;7.53;;;5.40;;
50880;SDS011;36858;47.832;-3.800;2023-04-19T11:42:31;5.50;;;5.00;;
50880;SDS011;36858;47.832;-3.800;2023-04-19T11:44:58;7.67;;;5.67;;
50880;SDS011;36858;47.832;-3.800;2023-04-19T11:47:25;6.27;;;5.67;;
50880;SDS011;36858;47.832;-3.800;2023-04-19T11:49:55;6.63;;;5.93;;
50880;SDS011;36858;47.832;-3.800;2023-04-19T11:52:23;5.90;;;5.30;;
50880;SDS011;36858;47.832;-3.800;2023-04-19T11:54:51;6.83;;;5.23;;
50880;SDS011;36858;47.832;-3.800;2023-04-19T11:57:30;5.40;;;4.60;;
50880;SDS011;36858;47.832;-3.800;2023-04-19T12:00:07;5.33;;;4.80;;
50880;SDS011;36858;47.832;-3.800;2023-04-19T12:02:37;5.80;;;5.30;;
50880;SDS011;36858;47.832;-3.800;2023-04-19T12:05:06;4.63;;;4.23;;
50880;SDS011;36858;47.832;-3.800;2023-04-19T12:07:56;5.40;;;4.70;;
50880;SDS011;36858;47.832;-3.800;2023-04-19T12:10:30;4.53;;;4.10;;
50880;SDS011;36858;47.832;-3.800;2023-04-19T12:12:57;5.20;;;4.57;;
50880;SDS011;36858;47.832;-3.800;2023-04-19T12:15:43;8.40;;;4.73;;
50880;SDS011;36858;47.832;-3.800;2023-04-19T12:18:11;8.73;;;5.30;;
50880;SDS011;36858;47.832;-3.800;2023-04-19T12:20:42;6.27;;;5.07;;
50880;SDS011;36858;47.832;-3.800;2023-04-19T12:23:13;5.17;;;4.67;;
50880;SDS011;36858;47.832;-3.800;2023-04-19T12:25:41;5.33;;;4.83;;
50880;SDS011;36858;47.832;-3.800;2023-04-19T12:28:09;10.27;;;4.80;;
50880;SDS011;36858;47.832;-3.800;2023-04-19T12:30:36;5.83;;;4.03;;
50880;SDS011;36858;47.832;-3.800;2023-04-19T12:33:07;4.47;;;3.53;;
50880;SDS011;36858;47.832;-3.800;2023-04-19T12:35:34;5.00;;;3.37;;
50880;SDS011;36858;47.832;-3.800;2023-04-19T12:38:02;3.43;;;3.10;;
50880;SDS011;36858;47.832;-3.800;2023-04-19T12:40:29;4.30;;;3.77;;
50880;SDS011;36858;47.832;-3.800;2023-04-19T12:42:56;3.63;;;3.30;;
50880;SDS011;36858;47.832;-3.800;2023-04-19T12:45:23;4.57;;;4.10;;
50880;SDS011;36858;47.832;-3.800;2023-04-19T12:47:50;4.63;;;3.67;;
50880;SDS011;36858;47.832;-3.800;2023-04-19T12:50:17;4.57;;;4.13;;
50880;SDS011;36858;47.832;-3.800;2023-04-19T12:52:44;4.90;;;3.97;;
50880;SDS011;36858;47.832;-3.800;2023-04-19T12:55:11;4.60;;;3.63;;
50880;SDS011;36858;47.832;-3.800;2023-04-19T12:57:38;3.93;;;3.50;;
50880;SDS011;36858;47.832;-3.800;2023-04-19T13:00:05;4.57;;;4.17;;
50880;SDS011;36858;47.832;-3.800;2023-04-19T13:02:33;4.43;;;4.03;;
50880;SDS011;36858;47.832;-3.800;2023-04-19T13:05:01;4.97;;;3.80;;
50880;SDS011;36858;47.832;-3.800;2023-04-19T13:07:30;4.50;;;4.10;;
50880;SDS011;36858;47.832;-3.800;2023-04-19T13:09:57;5.80;;;4.40;;
50880;SDS011;36858;47.832;-3.800;2023-04-19T13:12:24;4.80;;;4.40;;
50880;SDS011;36858;47.832;-3.800;2023-04-19T13:14:51;5.13;;;4.70;;
50880;SDS011;36858;47.832;-3.800;2023-04-19T13:17:18;7.37;;;5.10;;
50880;SDS011;36858;47.832;-3.800;2023-04-19T13:19:45;5.40;;;4.80;;
50880;SDS011;36858;47.832;-3.800;2023-04-19T13:22:13;6.10;;;5.03;;
50880;SDS011;36858;47.832;-3.800;2023-04-19T13:24:40;5.30;;;4.80;;
50880;SDS011;36858;47.832;-3.800;2023-04-19T13:27:07;7.00;;;5.70;;
50880;SDS011;36858;47.832;-3.800;2023-04-19T13:29:34;6.47;;;5.70;;
50880;SDS011;36858;47.832;-3.800;2023-04-19T13:32:01;6.97;;;6.00;;
50880;SDS011;36858;47.832;-3.800;2023-04-19T13:34:29;7.37;;;6.67;;
50880;SDS011;36858;47.832;-3.800;2023-04-19T13:36:56;6.37;;;5.77;;
50880;SDS011;36858;47.832;-3.800;2023-04-19T13:39:23;6.73;;;5.67;;
50880;SDS011;36858;47.832;-3.800;2023-04-19T13:41:50;6.23;;;5.60;;
50880;SDS011;36858;47.832;-3.800;2023-04-19T13:44:17;12.03;;;7.00;;
50880;SDS011;36858;47.832;-3.800;2023-04-19T13:46:44;6.53;;;5.83;;
50880;SDS011;36858;47.832;-3.800;2023-04-19T13:49:11;8.80;;;6.60;;
50880;SDS011;36858;47.832;-3.800;2023-04-19T13:51:38;8.50;;;6.70;;
50880;SDS011;36858;47.832;-3.800;2023-04-19T13:54:16;7.77;;;6.23;;
50880;SDS011;36858;47.832;-3.800;2023-04-19T13:56:44;8.13;;;6.80;;
50880;SDS011;36858;47.832;-3.800;2023-04-19T13:59:11;9.73;;;7.73;;
50880;SDS011;36858;47.832;-3.800;2023-04-19T14:01:38;7.67;;;6.43;;
50880;SDS011;36858;47.832;-3.800;2023-04-19T14:04:06;7.37;;;6.67;;
50880;SDS011;36858;47.832;-3.800;2023-04-19T14:06:33;10.07;;;7.07;;
50880;SDS011;36858;47.832;-3.800;2023-04-19T14:09:00;6.60;;;6.00;;
50880;SDS011;36858;47.832;-3.800;2023-04-19T14:11:27;7.87;;;6.40;;
50880;SDS011;36858;47.832;-3.800;2023-04-19T14:13:54;6.87;;;5.67;;
50880;SDS011;36858;47.832;-3.800;2023-04-19T14:16:21;6.13;;;5.53;;
50880;SDS011;36858;47.832;-3.800;2023-04-19T14:18:50;7.17;;;5.03;;
50880;SDS011;36858;47.832;-3.800;2023-04-19T14:21:18;7.40;;;6.60;;
50880;SDS011;36858;47.832;-3.800;2023-04-19T14:23:45;6.33;;;4.90;;
50880;SDS011;36858;47.832;-3.800;2023-04-19T14:26:12;5.63;;;5.03;;
50880;SDS011;36858;47.832;-3.800;2023-04-19T14:28:39;5.00;;;4.50;;
50880;SDS011;36858;47.832;-3.800;2023-04-19T14:31:06;4.80;;;4.30;;
50880;SDS011;36858;47.832;-3.800;2023-04-19T14:33:33;5.30;;;4.63;;
50880;SDS011;36858;47.832;-3.800;2023-04-19T14:36:00;5.73;;;4.70;;
50880;SDS011;36858;47.832;-3.800;2023-04-19T14:38:27;6.07;;;4.93;;
50880;SDS011;36858;47.832;-3.800;2023-04-19T14:40:54;4.40;;;4.00;;
50880;SDS011;36858;47.832;-3.800;2023-04-19T14:43:21;5.70;;;5.20;;
50880;SDS011;36858;47.832;-3.800;2023-04-19T14:45:48;7.77;;;4.50;;
50880;SDS011;36858;47.832;-3.800;2023-04-19T14:48:16;5.93;;;5.33;;
50880;SDS011;36858;47.832;-3.800;2023-04-19T14:50:47;7.27;;;5.53;;
50880;SDS011;36858;47.832;-3.800;2023-04-19T14:53:14;6.80;;;5.23;;
50880;SDS011;36858;47.832;-3.800;2023-04-19T14:55:41;6.03;;;5.17;;
50880;SDS011;36858;47.832;-3.800;2023-04-19T14:58:08;7.43;;;5.20;;
50880;SDS011;36858;47.832;-3.800;2023-04-19T15:00:35;6.27;;;5.07;;
50880;SDS011;36858;47.832;-3.800;2023-04-19T15:03:02;5.53;;;4.87;;
50880;SDS011;36858;47.832;-3.800;2023-04-19T15:05:29;5.23;;;4.73;;
50880;SDS011;36858;47.832;-3.800;2023-04-19T15:08:00;5.93;;;5.33;;
50880;SDS011;36858;47.832;-3.800;2023-04-19T15:10:27;5.20;;;4.70;;
50880;SDS011;36858;47.832;-3.800;2023-04-19T15:12:53;5.63;;;5.03;;
50880;SDS011;36858;47.832;-3.800;2023-04-19T15:15:27;6.50;;;5.37;;
50880;SDS011;36858;47.832;-3.800;2023-04-19T15:17:54;5.20;;;4.70;;
50880;SDS011;36858;47.832;-3.800;2023-04-19T15:20:22;6.10;;;5.50;;
50880;SDS011;36858;47.832;-3.800;2023-04-19T15:22:49;6.03;;;5.20;;
50880;SDS011;36858;47.832;-3.800;2023-04-19T15:25:15;4.73;;;4.30;;
50880;SDS011;36858;47.832;-3.800;2023-04-19T15:27:43;5.73;;;4.63;;
50880;SDS011;36858;47.832;-3.800;2023-04-19T15:30:10;5.60;;;5.10;;
50880;SDS011;36858;47.832;-3.800;2023-04-19T15:32:37;7.90;;;5.20;;
50880;SDS011;36858;47.832;-3.800;2023-04-19T15:35:06;5.73;;;5.13;;
50880;SDS011;36858;47.832;-3.800;2023-04-19T15:37:33;8.50;;;5.43;;
50880;SDS011;36858;47.832;-3.800;2023-04-19T15:40:00;7.37;;;4.70;;
50880;SDS011;36858;47.832;-3.800;2023-04-19T15:42:27;5.97;;;5.27;;
50880;SDS011;36858;47.832;-3.800;2023-04-19T15:44:54;6.10;;;5.43;;
50880;SDS011;36858;47.832;-3.800;2023-04-19T15:47:21;7.03;;;5.40;;
50880;SDS011;36858;47.832;-3.800;2023-04-19T15:49:48;5.90;;;5.30;;
50880;SDS011;36858;47.832;-3.800;2023-04-19T15:52:18;5.67;;;5.10;;
50880;SDS011;36858;47.832;-3.800;2023-04-19T15:54:44;7.73;;;5.67;;
50880;SDS011;36858;47.832;-3.800;2023-04-19T15:57:11;5.20;;;4.70;;
50880;SDS011;36858;47.832;-3.800;2023-04-19T15:59:38;5.07;;;4.67;;
50880;SDS011;36858;47.832;-3.800;2023-04-19T16:02:05;5.57;;;5.07;;
50880;SDS011;36858;47.832;-3.800;2023-04-19T16:04:33;5.90;;;5.23;;
50880;SDS011;36858;47.832;-3.800;2023-04-19T16:07:00;5.60;;;4.50;;
50880;SDS011;36858;47.832;-3.800;2023-04-19T16:09:27;5.93;;;5.17;;
50880;SDS011;36858;47.832;-3.800;2023-04-19T16:11:54;5.50;;;5.00;;
50880;SDS011;36858;47.832;-3.800;2023-04-19T16:14:21;5.90;;;5.33;;
50880;SDS011;36858;47.832;-3.800;2023-04-19T16:16:47;6.37;;;5.40;;
50880;SDS011;36858;47.832;-3.800;2023-04-19T16:19:15;6.37;;;4.80;;
50880;SDS011;36858;47.832;-3.800;2023-04-19T16:21:42;6.30;;;5.67;;
50880;SDS011;36858;47.832;-3.800;2023-04-19T16:24:09;6.83;;;5.53;;
50880;SDS011;36858;47.832;-3.800;2023-04-19T16:26:36;11.63;;;5.90;;
50880;SDS011;36858;47.832;-3.800;2023-04-19T16:29:02;6.70;;;5.33;;
50880;SDS011;36858;47.832;-3.800;2023-04-19T16:31:29;6.03;;;5.50;;
50880;SDS011;36858;47.832;-3.800;2023-04-19T16:33:56;5.10;;;4.53;;
50880;SDS011;36858;47.832;-3.800;2023-04-19T16:36:23;5.57;;;4.90;;
50880;SDS011;36858;47.832;-3.800;2023-04-19T16:38:50;5.50;;;5.00;;
50880;SDS011;36858;47.832;-3.800;2023-04-19T16:41:17;5.40;;;4.90;;
50880;SDS011;36858;47.832;-3.800;2023-04-19T16:43:44;5.57;;;4.93;;
50880;SDS011;36858;47.832;-3.800;2023-04-19T16:46:11;5.83;;;4.97;;
50880;SDS011;36858;47.832;-3.800;2023-04-19T16:48:38;5.13;;;4.70;;
50880;SDS011;36858;47.832;-3.800;2023-04-19T16:51:05;4.97;;;4.50;;
50880;SDS011;36858;47.832;-3.800;2023-04-19T16:53:32;6.77;;;4.93;;
50880;SDS011;36858;47.832;-3.800;2023-04-19T16:55:58;6.33;;;5.00;;
50880;SDS011;36858;47.832;-3.800;2023-04-19T16:58:28;4.90;;;4.40;;
50880;SDS011;36858;47.832;-3.800;2023-04-19T17:00:56;6.23;;;5.20;;
50880;SDS011;36858;47.832;-3.800;2023-04-19T17:03:23;5.77;;;4.57;;
50880;SDS011;36858;47.832;-3.800;2023-04-19T17:05:51;5.30;;;4.80;;
50880;SDS011;36858;47.832;-3.800;2023-04-19T17:08:18;5.73;;;4.37;;
50880;SDS011;36858;47.832;-3.800;2023-04-19T17:10:46;5.87;;;4.67;;
50880;SDS011;36858;47.832;-3.800;2023-04-19T17:13:13;6.73;;;4.80;;
50880;SDS011;36858;47.832;-3.800;2023-04-19T17:15:40;5.33;;;4.53;;
50880;SDS011;36858;47.832;-3.800;2023-04-19T17:18:07;5.10;;;4.60;;
50880;SDS011;36858;47.832;-3.800;2023-04-19T17:20:34;5.00;;;4.03;;
50880;SDS011;36858;47.832;-3.800;2023-04-19T17:23:01;4.77;;;4.33;;
50880;SDS011;36858;47.832;-3.800;2023-04-19T17:25:28;5.37;;;4.30;;
50880;SDS011;36858;47.832;-3.800;2023-04-19T17:27:55;4.40;;;4.00;;
50880;SDS011;36858;47.832;-3.800;2023-04-19T17:30:22;6.23;;;4.53;;
50880;SDS011;36858;47.832;-3.800;2023-04-19T17:32:49;4.70;;;4.20;;
50880;SDS011;36858;47.832;-3.800;2023-04-19T17:35:16;5.03;;;4.53;;
50880;SDS011;36858;47.832;-3.800;2023-04-19T17:37:43;4.57;;;4.17;;
50880;SDS011;36858;47.832;-3.800;2023-04-19T17:40:10;4.13;;;3.73;;
50880;SDS011;36858;47.832;-3.800;2023-04-19T17:42:37;4.83;;;4.00;;
50880;SDS011;36858;47.832;-3.800;2023-04-19T17:45:04;4.13;;;3.73;;
50880;SDS011;36858;47.832;-3.800;2023-04-19T17:47:39;4.10;;;3.70;;
50880;SDS011;36858;47.832;-3.800;2023-04-19T17:50:07;4.43;;;4.03;;
50880;SDS011;36858;47.832;-3.800;2023-04-19T17:52:36;4.43;;;4.00;;
50880;SDS011;36858;47.832;-3.800;2023-04-19T17:55:03;4.27;;;3.93;;
50880;SDS011;36858;47.832;-3.800;2023-04-19T17:57:31;3.53;;;3.23;;
50880;SDS011;36858;47.832;-3.800;2023-04-19T17:59:59;5.50;;;4.20;;
50880;SDS011;36858;47.832;-3.800;2023-04-19T18:02:31;4.43;;;3.63;;
50880;SDS011;36858;47.832;-3.800;2023-04-19T18:04:58;5.07;;;3.83;;
50880;SDS011;36858;47.832;-3.800;2023-04-19T18:07:25;4.53;;;3.63;;
50880;SDS011;36858;47.832;-3.800;2023-04-19T18:09:52;4.87;;;3.83;;
50880;SDS011;36858;47.832;-3.800;2023-04-19T18:12:19;4.70;;;4.30;;
50880;SDS011;36858;47.832;-3.800;2023-04-19T18:14:46;3.87;;;3.47;;
50880;SDS011;36858;47.832;-3.800;2023-04-19T18:17:12;4.40;;;4.00;;
50880;SDS011;36858;47.832;-3.800;2023-04-19T18:19:39;4.70;;;4.10;;
50880;SDS011;36858;47.832;-3.800;2023-04-19T18:22:06;4.40;;;4.00;;
50880;SDS011;36858;47.832;-3.800;2023-04-19T18:24:34;3.80;;;3.50;;
50880;SDS011;36858;47.832;-3.800;2023-04-19T18:27:01;4.57;;;3.27;;
50880;SDS011;36858;47.832;-3.800;2023-04-19T18:29:28;4.37;;;3.97;;
50880;SDS011;36858;47.832;-3.800;2023-04-19T18:31:55;3.77;;;3.47;;
50880;SDS011;36858;47.832;-3.800;2023-04-19T18:34:22;4.30;;;3.77;;
50880;SDS011;36858;47.832;-3.800;2023-04-19T18:36:50;4.73;;;3.87;;
50880;SDS011;36858;47.832;-3.800;2023-04-19T18:39:24;4.63;;;3.87;;
50880;SDS011;36858;47.832;-3.800;2023-04-19T18:41:51;3.93;;;3.53;;
50880;SDS011;36858;47.832;-3.800;2023-04-19T18:44:18;4.17;;;3.60;;
50880;SDS011;36858;47.832;-3.800;2023-04-19T18:47:05;3.90;;;3.30;;
50880;SDS011;36858;47.832;-3.800;2023-04-19T18:49:32;3.80;;;3.50;;
50880;SDS011;36858;47.832;-3.800;2023-04-19T18:51:59;3.53;;;3.23;;
50880;SDS011;36858;47.832;-3.800;2023-04-19T18:54:26;3.33;;;3.03;;
50880;SDS011;36858;47.832;-3.800;2023-04-19T18:56:53;4.43;;;3.37;;
50880;SDS011;36858;47.832;-3.800;2023-04-19T18:59:23;4.00;;;3.57;;
50880;SDS011;36858;47.832;-3.800;2023-04-19T19:01:50;3.93;;;3.53;;
50880;SDS011;36858;47.832;-3.800;2023-04-19T19:04:21;4.27;;;3.87;;
50880;SDS011;36858;47.832;-3.800;2023-04-19T19:07:08;3.50;;;3.20;;
50880;SDS011;36858;47.832;-3.800;2023-04-19T19:09:55;3.40;;;3.10;;
50880;SDS011;36858;47.832;-3.800;2023-04-19T19:12:22;3.70;;;3.40;;
50880;SDS011;36858;47.832;-3.800;2023-04-19T19:14:49;3.67;;;3.37;;
50880;SDS011;36858;47.832;-3.800;2023-04-19T19:17:16;5.33;;;3.27;;
50880;SDS011;36858;47.832;-3.800;2023-04-19T19:19:43;4.53;;;3.40;;
50880;SDS011;36858;47.832;-3.800;2023-04-19T19:22:10;4.20;;;3.80;;
50880;SDS011;36858;47.832;-3.800;2023-04-19T19:24:52;3.97;;;3.57;;
50880;SDS011;36858;47.832;-3.800;2023-04-19T19:27:19;4.07;;;3.77;;
50880;SDS011;36858;47.832;-3.800;2023-04-19T19:29:46;3.20;;;2.90;;
50880;SDS011;36858;47.832;-3.800;2023-04-19T19:32:13;3.80;;;3.40;;
50880;SDS011;36858;47.832;-3.800;2023-04-19T19:34:40;4.43;;;3.17;;
50880;SDS011;36858;47.832;-3.800;2023-04-19T19:37:21;4.20;;;3.37;;
50880;SDS011;36858;47.832;-3.800;2023-04-19T19:39:48;3.80;;;3.40;;
50880;SDS011;36858;47.832;-3.800;2023-04-19T19:42:15;4.27;;;3.20;;
50880;SDS011;36858;47.832;-3.800;2023-04-19T19:44:42;2.93;;;2.70;;
50880;SDS011;36858;47.832;-3.800;2023-04-19T19:47:09;3.40;;;3.10;;
50880;SDS011;36858;47.832;-3.800;2023-04-19T19:49:37;3.30;;;2.80;;
50880;SDS011;36858;47.832;-3.800;2023-04-19T19:52:07;3.97;;;3.33;;
50880;SDS011;36858;47.832;-3.800;2023-04-19T19:54:34;3.00;;;2.70;;
50880;SDS011;36858;47.832;-3.800;2023-04-19T19:57:01;3.37;;;3.07;;
